Tiempo atmosférico en la estación meteorológica de Quinto, Zaragoza (205 m.)



Fecha
DESCASC
Temp. máxima en grados centígrados (hora)
DESCASC
Temp. mínima en grados centígrados (hora)
DESCASC
Temp. media en grados centígrados
DESCASC
Racha de viento máxima en m/sg (hora)
DESCASC
Velocidad máxima media en intervalos de 10 minutos(hora)
DESCASC
Precipitaciones diarias en mm
DESCASC
Precipitaciones de 00:00 a 06:00 en mm
DESCASC
Precipitaciones de 06:00 a 12:00 en mm
DESCASC
Precipitaciones de 12:00 a 18:00 en mm
DESCASC
Precipitaciones de 18:00 a 24:00 en mm
DESCASC
18-04-2019 21.1 (16:30) 11.8 (06:40) 16.5 15.83 (18:30) 9.17 (18:30) 0 0 0 0 0
17-04-2019 21.8 (15:20) 10.2 (08:10) 16 11.39 (18:00) 6.67 (18:20) 0 0 0 0 0
16-04-2019 22.9 (18:40) 7.6 (00:00) 15.2 10 (20:10) 5.56 (20:20) 0 0 0 0 0
15-04-2019 22.3 (14:40) 9.5 (00:00) 15.9 13.06 (18:40) 7.78 (19:10) 0 0 0 0 0
14-04-2019 25.7 (17:10) 3.7 (00:00) 14.7 13.61 (14:00) 7.22 (14:20) 0 0 0 0 0
13-04-2019 22.7 (19:00) 4.2 (00:00) 13.5 8.33 (15:30) 5.28 (13:30) 0 0 0 0 0
12-04-2019 19.7 (17:00) 8.8 (07:10) 14.3 16.39 (06:00) 8.89 (00:10) 0 0 0 0 0
11-04-2019 17.2 (16:00) 8.9 (00:00) 13.1 21.11 (18:00) 11.39 (17:30) 0 0 0 0 0
10-04-2019 18.2 (17:00) 6.6 (00:00) 12.4 14.17 (22:30) 8.89 (22:20) 0 0 0 0 0
09-04-2019 18.7 (15:50) 7.4 (00:00) 13.1 14.44 (18:40) 10 (18:40) 6.6 6.6 0 0 0
08-04-2019 18.7 (17:50) 8.3 (00:00) 13.5 9.72 (19:10) 5.28 (19:20) 4 1.6 0.4 2 0
07-04-2019 17.1 (18:30) 7.2 (00:00) 12.2 19.17 (15:40) 8.61 (12:20) 0 0 0 0 0
06-04-2019 16.3 (16:30) 5.8 (00:00) 11 15.28 (19:00) 8.89 (11:20) 0.6 0 0 0 0.6
05-04-2019 17.2 (13:40) 4.9 (00:00) 11.1 16.39 (23:00) 8.89 (23:00) 1.4 0 0 0.4 1
04-04-2019 15.5 (17:50) 0.7 (00:00) 8.1 9.44 (14:00) 5 (13:10) 0 0 0 0 0
03-04-2019 12.9 (11:40) 5 (23:59) 8.9 15.56 (19:30) 10.56 (19:40) 0 0 0 0 0
02-04-2019 19.6 (17:00) 8.9 (00:00) 14.3 10.83 (17:00) 6.11 (18:00) 0 0 0 0 0
01-04-2019 16.7 (18:40) 8.5 (00:00) 12.6 4.17 (04:00) 3.06 (03:30) 7.2 3 3.8 0 0.4
31-03-2019 12.3 (18:00) 2.5 (00:00) 7.4 5 (13:40) 2.78 (00:40) 3.2 0 0 0 3.2
30-03-2019 20.3 (16:20) 1.7 (00:00) 11 6.94 (16:00) 4.44 (19:30) 0 0 0 0 0
29-03-2019 21 (14:50) 1 (00:00) 11 11.11 (17:30) 6.39 (17:40) 0 0 0 0 0
28-03-2019 19.9 (17:30) 3.4 (00:00) 11.6 8.33 (01:40) 5 (01:40) 0 0 0 0 0
27-03-2019 20.1 (18:10) 0.8 (00:00) 10.5 8.33 (22:20) 4.72 (22:00) 0 0 0 0 0
26-03-2019 20.2 (17:20) 7.1 (00:00) 13.7 16.67 (01:00) 9.44 (00:40) 0 0 0 0 0
25-03-2019 18.3 (14:30) 8.8 (00:00) 13.5 17.5 (22:40) 11.11 (21:30) 0 0 0 0 0
24-03-2019 -- (--) -- (--) -- -- (--) -- (--) -- 0 -- 0 0
23-03-2019 23.6 (17:20) 1.6 (00:00) 12.6 4.17 (11:00) 2.5 (11:10) 0 0 0 0 0
22-03-2019 20.8 (17:30) -1.1 (-00:0) 9.8 4.17 (15:00) 2.5 (15:00) 0 0 0 0 0
21-03-2019 18 (17:00) -0.3 (00:00) 8.8 6.39 (12:20) 3.33 (11:50) 0 0 0 0 0

Gráficas

Temp. máximas Temp. mínimas Temp. medias Precipitaciones Rachas de viento máximas Velocidades máximas media en intervalos de 10 minutos

Datos horarios

Fecha y hora oficial Temperatura (ºC) Velocidad del viento (km/h) Dirección del viento Racha (km/h) Dirección de racha Precipitación (mm) Presión (hPa) Tendencia (hPa) Humedad (%)
2019-04-19 23:00:00 15.6 0 Calma 14 Sudeste 0 -- -- 53
2019-04-19 22:00:00 17.3 11 Sudeste 24 Sudeste 0 -- -- 46
2019-04-19 21:00:00 18.1 15 Sudeste 28 Este 0 -- -- 45
2019-04-19 20:00:00 19.5 18 Sudeste 35 Este 0 -- -- 42
2019-04-19 19:00:00 20.5 21 Este 36 Este 0 -- -- 40
2019-04-19 18:00:00 21.7 25 Sudeste 46 Sudeste 0 -- -- 35
2019-04-19 17:00:00 21.9 21 Sudeste 35 Este 0 -- -- 36
2019-04-19 16:00:00 21.7 20 Este 39 Este 0 -- -- 40
2019-04-19 15:00:00 21.2 21 Este 47 Este 0 -- -- 42
2019-04-19 14:00:00 21.2 24 Este 44 Este 0 -- -- 43
2019-04-19 13:00:00 19.3 15 Este 40 Este 0 -- -- 53
2019-04-19 12:00:00 17.5 8 Este 20 Nordeste 0 -- -- 58
2019-04-19 11:00:00 15.3 5 Nordeste 9 Nordeste 0 -- -- 69
2019-04-19 10:00:00 13.8 4 Nordeste 11 Este 0 -- -- 73
2019-04-19 09:00:00 13.1 2 Este 15 Este 0 -- -- 75
2019-04-19 08:00:00 12.9 7 Este 13 Nordeste 0 -- -- 72
2019-04-19 07:00:00 12.4 4 Este 9 Nordeste 0 -- -- 77
2019-04-19 06:00:00 12.3 2 Noroeste 12 Noroeste 0 -- -- 86
2019-04-19 05:00:00 12 8 Noroeste 11 Oeste 0 -- -- 89
2019-04-19 04:00:00 12.4 9 Sudoeste 20 Este 1.6 -- -- 86
2019-04-19 03:00:00 13 11 Sudeste 31 Sudeste 0.6 -- -- 80
2019-04-19 02:00:00 14.4 15 Sudeste 30 Este 0.2 -- -- 68
2019-04-19 01:00:00 15.4 17 Este 35 Este 0 -- -- 64
2019-04-19 00:00:00 16.1 16 Este 36 Este 0 -- -- 54
2019-04-18 23:00:00 16.3 21 Sudeste 45 Sudeste 0 -- -- 53
2019-04-18 22:00:00 17 24 Sudeste 46 Este 0 -- -- 53
2019-04-18 21:00:00 17.5 20 Este 40 Este 0 -- -- 49
2019-04-18 20:00:00 18.3 24 Este 55 Este 0 -- -- 47
2019-04-18 19:00:00 19 28 Este 57 Este 0 -- -- 43
2019-04-18 18:00:00 19.9 33 Sudeste 57 Sudeste 0 -- -- 40
2019-04-18 17:00:00 20.8 27 Este 49 Este 0 -- -- 40
2019-04-18 16:00:00 20.8 24 Este 51 Este 0 -- -- 42
2019-04-18 15:00:00 19.9 22 Este 39 Este 0 -- -- 44
2019-04-18 14:00:00 17.8 22 Este 39 Este 0 -- -- 48
2019-04-18 13:00:00 15.9 12 Este 31 Este 0 -- -- 62
2019-04-18 12:00:00 14.8 14 Este 28 Este 0 -- -- 66
2019-04-18 11:00:00 14.3 14 Este 34 Este 0 -- -- 69
2019-04-18 10:00:00 13.3 21 Este 38 Este 0 -- -- 72
2019-04-18 09:00:00 12.9 13 Sudeste 24 Sudeste 0 -- -- 75
2019-04-18 08:00:00 12.1 10 Este 34 Este 0 -- -- 79
2019-04-18 07:00:00 12 7 Este 22 Sudeste 0 -- -- 80
2019-04-18 06:00:00 12.1 7 Este 21 Este 0 -- -- 82
2019-04-18 05:00:00 12.5 12 Este 22 Este 0 -- -- 84
2019-04-18 04:00:00 12.5 10 Este 21 Este 0 -- -- 81
2019-04-18 03:00:00 13 9 Este 22 Este 0 -- -- 78
2019-04-18 02:00:00 13.5 15 Este 31 Este 0 -- -- 76
2019-04-18 01:00:00 13.7 15 Este 30 Este 0 -- -- 73
2019-04-18 00:00:00 13.9 8 Este 28 Sudeste 0 -- -- 71
2019-04-17 23:00:00 14 9 Este 27 Este 0 -- -- 69
2019-04-17 22:00:00 14.2 10 Este 24 Este 0 -- -- 70
2019-04-17 21:00:00 15.4 13 Este 34 Este 0 -- -- 66
2019-04-17 20:00:00 16.8 15 Este 31 Este 0 -- -- 63
2019-04-17 19:00:00 18.5 19 Este 40 Este 0 -- -- 58
2019-04-17 18:00:00 20.3 24 Este 41 Este 0 -- -- 51
2019-04-17 17:00:00 21.2 20 Este 37 Este 0 -- -- 49
2019-04-17 16:00:00 21.6 18 Este 37 Este 0 -- -- 47
2019-04-17 15:00:00 21.3 19 Este 35 Este 0 -- -- 47
2019-04-17 14:00:00 21.4 18 Este 37 Este 0 -- -- 48
2019-04-17 13:00:00 19.9 16 Este 33 Este 0 -- -- 51
2019-04-17 12:00:00 17.8 16 Este 30 Este 0 -- -- 57
2019-04-17 11:00:00 15.8 15 Este 26 Este 0 -- -- 65
2019-04-17 10:00:00 14.1 14 Este 30 Este 0 -- -- 70
2019-04-17 09:00:00 12.4 14 Este 26 Este 0 -- -- 75
2019-04-17 08:00:00 10.3 12 Este 23 Sudeste 0 -- -- 80
2019-04-17 07:00:00 10.6 9 Este 18 Sudeste 0 -- -- 83
2019-04-17 06:00:00 11.1 11 Este 20 Este 0 -- -- 81
2019-04-17 05:00:00 11 6 Sudeste 24 Este 0 -- -- 81
2019-04-17 04:00:00 11.4 15 Este 31 Nordeste 0 -- -- 79
2019-04-17 03:00:00 11.7 10 Este 22 Este 0 -- -- 77
2019-04-17 02:00:00 12.1 10 Este 22 Este 0 -- -- 71
2019-04-17 01:00:00 12.5 9 Este 17 Este 0 -- -- 64
2019-04-17 00:00:00 12.8 4 Nordeste 9 Norte 0 -- -- 63
2019-04-16 23:00:00 14.5 4 Nordeste 22 Sudeste 0 -- -- 59
2019-04-16 22:00:00 16 10 Este 30 Este 0 -- -- 50
2019-04-16 21:00:00 18 19 Este 36 Este 0 -- -- 49
2019-04-16 20:00:00 20.9 10 Este 20 Este 0 -- -- 39
2019-04-16 19:00:00 22.7 4 Este 12 Este 0 -- -- 34
2019-04-16 18:00:00 22.8 5 Nordeste 15 Este 0 -- -- 31
2019-04-16 17:00:00 22.7 4 Noroeste 13 Este 0 -- -- 35
2019-04-16 16:00:00 21.9 7 Nordeste 16 Este 0 -- -- 36
2019-04-16 15:00:00 21.2 6 Norte 19 Norte 0 -- -- 38
2019-04-16 14:00:00 19.7 8 Norte 22 Noroeste 0 -- -- 43
2019-04-16 13:00:00 18.7 12 Noroeste 24 Noroeste 0 -- -- 48
2019-04-16 12:00:00 17.5 16 Noroeste 26 Oeste 0 -- -- 52
2019-04-16 11:00:00 15.8 10 Noroeste 19 Noroeste 0 -- -- 62
2019-04-16 10:00:00 13.8 5 Norte 10 Oeste 0 -- -- 73
2019-04-16 09:00:00 9.7 0 Calma 4 Sur 0 -- -- 85
2019-04-16 08:00:00 8.6 3 Este 6 Sudeste 0 -- -- 84
2019-04-16 07:00:00 8 0 Calma 10 Oeste 0 -- -- 84
2019-04-16 06:00:00 8 7 Sudoeste 10 Sudoeste 0 -- -- 83
2019-04-16 05:00:00 9.2 4 Sudoeste 9 Oeste 0 -- -- 78
2019-04-16 04:00:00 10.6 7 Noroeste 12 Noroeste 0 -- -- 76
2019-04-16 03:00:00 11 8 Noroeste 14 Noroeste 0 -- -- 75
2019-04-16 02:00:00 11.1 5 Noroeste 12 Norte 0 -- -- 74
2019-04-16 01:00:00 10.9 6 Noroeste 13 Norte 0 -- -- 75
2019-04-16 00:00:00 12.3 7 Norte 17 Norte 0 -- -- 69
2019-04-15 23:00:00 13.6 9 Este 31 Este 0 -- -- 64
2019-04-15 22:00:00 14.2 15 Este 33 Este 0 -- -- 64
2019-04-15 21:00:00 15.1 24 Este 40 Sudeste 0 -- -- 61
2019-04-15 20:00:00 17.2 19 Este 46 Este 0 -- -- 54
2019-04-15 19:00:00 18.7 26 Este 47 Este 0 -- -- 52
2019-04-15 18:00:00 20.3 22 Este 43 Este 0 -- -- 51
2019-04-15 17:00:00 20.3 24 Este 42 Este 0 -- -- 51
2019-04-15 16:00:00 21 24 Este 44 Este 0 -- -- 49
2019-04-15 15:00:00 22.1 23 Este 41 Este 0 -- -- 47
2019-04-15 14:00:00 21.7 21 Este 36 Este 0 -- -- 46
2019-04-15 13:00:00 21.3 18 Este 34 Nordeste 0 -- -- 50
2019-04-15 12:00:00 20.6 13 Este 24 Este 0 -- -- 47
2019-04-15 11:00:00 17.9 7 Este 21 Nordeste 0 -- -- 56
2019-04-15 10:00:00 15.6 8 Este 17 Este 0 -- -- 66
2019-04-15 09:00:00 12.2 3 Sudoeste 9 Sudeste 0 -- -- 84
2019-04-15 08:00:00 9.5 2 Sur 8 Este 0 -- -- 83
2019-04-15 07:00:00 10.4 3 Sudeste 13 Este 0 -- -- 84
2019-04-15 06:00:00 10.5 4 Sudeste 12 Sudoeste 0 -- -- 83
2019-04-15 05:00:00 10.9 8 Sudoeste 13 Sudoeste 0 -- -- 81
2019-04-15 04:00:00 12.2 5 Oeste 13 Sudoeste 0 -- -- 77
2019-04-15 03:00:00 14.2 11 Este 16 Sudeste 0 -- -- 72
2019-04-15 02:00:00 14.2 3 Sur 10 Este 0 -- -- 71
2019-04-15 01:00:00 16.3 0 Calma 24 Oeste 0 -- -- 64
2019-04-15 00:00:00 18.3 17 Oeste 27 Oeste 0 -- -- 57
2019-04-14 23:00:00 18.7 8 Sudoeste 32 Oeste 0 -- -- 57
2019-04-14 22:00:00 20.5 24 Oeste 36 Oeste 0 -- -- 50
2019-04-14 21:00:00 21.5 22 Noroeste 35 Noroeste 0 -- -- 48
2019-04-14 20:00:00 23.4 15 Noroeste 31 Oeste 0 -- -- 43
2019-04-14 19:00:00 24.9 20 Noroeste 34 Noroeste 0 -- -- 38
2019-04-14 18:00:00 25.6 22 Noroeste 38 Noroeste 0 -- -- 34
2019-04-14 17:00:00 25.6 22 Oeste 40 Oeste 0 -- -- 33
2019-04-14 16:00:00 24.8 21 Noroeste 38 Noroeste 0 -- -- 33
2019-04-14 15:00:00 23.8 26 Noroeste 42 Noroeste 0 -- -- 36
2019-04-14 14:00:00 22.7 26 Noroeste 49 Noroeste 0 -- -- 35
2019-04-14 13:00:00 21.7 21 Noroeste 36 Noroeste 0 -- -- 32
2019-04-14 12:00:00 19.9 15 Noroeste 23 Noroeste 0 -- -- 41
2019-04-14 11:00:00 16.2 3 Noroeste 11 Noroeste 0 -- -- 47
2019-04-14 10:00:00 11.7 4 Noroeste 7 Noroeste 0 -- -- 50
2019-04-14 09:00:00 7.9 4 Este 6 Este 0 -- -- 58
2019-04-14 08:00:00 5 0 Calma 6 Sudeste 0 -- -- 71
2019-04-14 07:00:00 4.2 2 Sur 5 Sudeste 0 -- -- 66
2019-04-14 06:00:00 3.9 3 Sur 3 Sur 0 -- -- 71
2019-04-14 05:00:00 4.1 2 Sudoeste 4 Este 0 -- -- 65
2019-04-14 04:00:00 4.4 3 Sur 6 Sudoeste 0 -- -- 62
2019-04-14 03:00:00 4.8 2 Sudeste 10 Sudoeste 0 -- -- 61
2019-04-14 02:00:00 5.3 6 Sudoeste 8 Sudoeste 0 -- -- 59
2019-04-14 01:00:00 6.8 3 Noroeste 8 Sudoeste 0 -- -- 53
2019-04-14 00:00:00 8.7 3 Este 11 Sudoeste 0 -- -- 49
2019-04-13 23:00:00 9.1 5 Sudoeste 18 Sudoeste 0 -- -- 49
2019-04-13 22:00:00 11.8 14 Sudoeste 18 Sudoeste 0 -- -- 38
2019-04-13 21:00:00 16.4 9 Oeste 12 Oeste 0 -- -- 34
2019-04-13 20:00:00 22.1 5 Oeste 15 Noroeste 0 -- -- 21
2019-04-13 19:00:00 22.7 9 Noroeste 26 Noroeste 0 -- -- 17
2019-04-13 18:00:00 22.5 16 Noroeste 23 Noroeste 0 -- -- 20
2019-04-13 17:00:00 22.3 16 Noroeste 26 Noroeste 0 -- -- 21
2019-04-13 16:00:00 21.4 18 Noroeste 30 Noroeste 0 -- -- 21
2019-04-13 15:00:00 20.4 17 Noroeste 29 Noroeste 0 -- -- 23
2019-04-13 14:00:00 18.7 18 Noroeste 27 Noroeste 0 -- -- 25
2019-04-13 13:00:00 17 17 Noroeste 28 Noroeste 0 -- -- 27
2019-04-13 12:00:00 14.9 8 Noroeste 15 Norte 0 -- -- 44
2019-04-13 11:00:00 12 6 Norte 15 Noroeste 0 -- -- 56
2019-04-13 10:00:00 8.9 11 Noroeste 17 Noroeste 0 -- -- 68
2019-04-13 09:00:00 6.9 4 Norte 8 Noroeste 0 -- -- 76
2019-04-13 08:00:00 4.2 5 Oeste 8 Sudoeste 0 -- -- 80
2019-04-13 07:00:00 5.5 5 Noroeste 11 Oeste 0 -- -- 76
2019-04-13 06:00:00 6.4 5 Oeste 10 Noroeste 0 -- -- 73
2019-04-13 05:00:00 7.3 5 Noroeste 9 Noroeste 0 -- -- 70
2019-04-13 04:00:00 7.9 4 Norte 8 Nordeste 0 -- -- 67
2019-04-13 03:00:00 8.9 4 Este 22 Noroeste 0 -- -- 63
2019-04-13 02:00:00 9.8 9 Noroeste 27 Oeste 0 -- -- 61
2019-04-13 01:00:00 10.8 11 Oeste 23 Oeste 0 -- -- 58
2019-04-13 00:00:00 10.5 11 Oeste 19 Oeste 0 -- -- 59
2019-04-12 23:00:00 12.2 6 Oeste 20 Oeste 0 -- -- 53
2019-04-12 22:00:00 13.6 11 Sudoeste 25 Oeste 0 -- -- 49
2019-04-12 21:00:00 15.3 14 Oeste 33 Oeste 0 -- -- 43
2019-04-12 20:00:00 17.4 19 Oeste 39 Oeste 0 -- -- 38
2019-04-12 19:00:00 19.1 23 Oeste 37 Noroeste 0 -- -- 34
2019-04-12 18:00:00 19.7 25 Oeste 43 Oeste 0 -- -- 31
2019-04-12 17:00:00 19.7 24 Oeste 42 Oeste 0 -- -- 33
2019-04-12 16:00:00 19.1 24 Oeste 45 Oeste 0 -- -- 34
2019-04-12 15:00:00 18.4 24 Noroeste 38 Oeste 0 -- -- 37
2019-04-12 14:00:00 17.4 23 Oeste 41 Oeste 0 -- -- 40
2019-04-12 13:00:00 16.4 24 Noroeste 41 Noroeste 0 -- -- 47
2019-04-12 12:00:00 14.8 25 Noroeste 41 Oeste 0 -- -- 52
2019-04-12 11:00:00 13.1 26 Oeste 54 Oeste 0 -- -- 59
2019-04-12 10:00:00 11.7 28 Noroeste 44 Noroeste 0 -- -- 61
2019-04-12 09:00:00 10.2 26 Noroeste 45 Oeste 0 -- -- 67
2019-04-12 08:00:00 9 26 Noroeste 40 Oeste 0 -- -- 71
2019-04-12 07:00:00 8.9 26 Oeste 44 Oeste 0 -- -- 72
2019-04-12 06:00:00 9.1 27 Noroeste 59 Noroeste 0 -- -- 70
2019-04-12 05:00:00 9.3 25 Oeste 44 Oeste 0 -- -- 70
2019-04-12 04:00:00 9.4 25 Oeste 43 Oeste 0 -- -- 69
2019-04-12 03:00:00 9.7 22 Oeste 47 Oeste 0 -- -- 68
2019-04-12 02:00:00 10 30 Noroeste 52 Oeste 0 -- -- 65
2019-04-12 01:00:00 10.1 27 Oeste 53 Oeste 0 -- -- 63
2019-04-12 00:00:00 10.8 33 Noroeste 68 Oeste 0 -- -- 59
2019-04-11 23:00:00 11.5 32 Noroeste 54 Noroeste 0 -- -- 61
2019-04-11 22:00:00 12 33 Noroeste 52 Oeste 0 -- -- 62
2019-04-11 21:00:00 13.4 35 Noroeste 62 Noroeste 0 -- -- 55
2019-04-11 20:00:00 14.8 35 Noroeste 58 Noroeste 0 -- -- 50
2019-04-11 19:00:00 15.6 37 Noroeste 63 Oeste 0 -- -- 49
2019-04-11 18:00:00 16.6 38 Noroeste 76 Noroeste 0 -- -- 46
2019-04-11 17:00:00 16.9 40 Noroeste 64 Noroeste 0 -- -- 44
2019-04-11 16:00:00 17.2 37 Noroeste 60 Noroeste 0 -- -- 44
2019-04-11 15:00:00 16.7 35 Noroeste 60 Noroeste 0 -- -- 46
2019-04-11 14:00:00 16.4 35 Noroeste 58 Noroeste 0 -- -- 47
2019-04-11 13:00:00 15.4 33 Noroeste 62 Noroeste 0 -- -- 48
2019-04-11 12:00:00 14.3 33 Noroeste 58 Noroeste 0 -- -- 51
2019-04-11 11:00:00 12.9 32 Noroeste 58 Oeste 0 -- -- 57
2019-04-11 10:00:00 11.9 32 Noroeste 56 Oeste 0 -- -- 60
2019-04-11 09:00:00 10.3 29 Noroeste 47 Oeste 0 -- -- 66
2019-04-11 08:00:00 9.1 30 Noroeste 52 Oeste 0 -- -- 71
2019-04-11 07:00:00 9.1 31 Noroeste 50 Oeste 0 -- -- 71
2019-04-11 06:00:00 9.3 31 Noroeste 49 Oeste 0 -- -- 70
2019-04-11 05:00:00 9.4 31 Noroeste 48 Noroeste 0 -- -- 68
2019-04-11 04:00:00 9.4 27 Noroeste 48 Oeste 0 -- -- 68
2019-04-11 03:00:00 9.7 28 Noroeste 48 Noroeste 0 -- -- 68
2019-04-11 02:00:00 10 26 Oeste 51 Oeste 0 -- -- 67
2019-04-11 01:00:00 10.4 31 Oeste 53 Noroeste 0 -- -- 65
2019-04-11 00:00:00 11 30 Oeste 50 Oeste 0 -- -- 64
2019-04-10 23:00:00 12.1 28 Oeste 51 Oeste 0 -- -- 60
2019-04-10 22:00:00 13.6 32 Noroeste 49 Noroeste 0 -- -- 51
2019-04-10 21:00:00 14.6 28 Noroeste 46 Oeste 0 -- -- 49
2019-04-10 20:00:00 15.5 20 Oeste 41 Noroeste 0 -- -- 48
2019-04-10 19:00:00 16.5 25 Noroeste 41 Noroeste 0 -- -- 48
2019-04-10 18:00:00 17.5 23 Noroeste 44 Oeste 0 -- -- 45
2019-04-10 17:00:00 18.2 27 Oeste 47 Oeste 0 -- -- 44
2019-04-10 16:00:00 17.5 25 Oeste 42 Noroeste 0 -- -- 47
2019-04-10 15:00:00 16.5 26 Noroeste 46 Oeste 0 -- -- 50
2019-04-10 14:00:00 15.4 26 Noroeste 41 Oeste 0 -- -- 53
2019-04-10 13:00:00 14.7 25 Noroeste 44 Oeste 0 -- -- 54
2019-04-10 12:00:00 13.3 27 Noroeste 49 Oeste 0 -- -- 58
2019-04-10 11:00:00 12.6 32 Oeste 48 Oeste 0 -- -- 59
2019-04-10 10:00:00 10.9 26 Oeste 41 Noroeste 0 -- -- 65
2019-04-10 09:00:00 9.7 14 Oeste 27 Oeste 0 -- -- 71
2019-04-10 08:00:00 6.6 5 Sudoeste 11 Oeste 0 -- -- 83
2019-04-10 07:00:00 7.4 3 Este 9 Noroeste 0 -- -- 81
2019-04-10 06:00:00 7.6 0 Calma 10 Oeste 0 -- -- 83
2019-04-10 05:00:00 7.4 4 Sur 13 Oeste 0 -- -- 80
2019-04-10 04:00:00 8.8 12 Oeste 23 Oeste 0 -- -- 75
2019-04-10 03:00:00 9.5 13 Oeste 27 Oeste 0 -- -- 77
2019-04-10 02:00:00 9.9 14 Oeste 28 Oeste 0 -- -- 78
2019-04-10 01:00:00 10.5 15 Oeste 28 Oeste 0 -- -- 74
2019-04-10 00:00:00 11.2 19 Noroeste 42 Noroeste 0 -- -- 71
2019-04-09 23:00:00 11.5 16 Oeste 25 Oeste 0 -- -- 67
2019-04-09 22:00:00 11 7 Sudoeste 30 Sudoeste 0 -- -- 67
2019-04-09 21:00:00 11.5 22 Sudoeste 42 Oeste 0 -- -- 63
2019-04-09 20:00:00 13 27 Sudoeste 46 Sudoeste 0 -- -- 60
2019-04-09 19:00:00 14.3 23 Sudoeste 52 Sudoeste -- -- -- 56
2019-04-09 18:00:00 17.3 17 Sudoeste 29 Sudoeste 0 -- -- 41
2019-04-09 17:00:00 17.3 10 Noroeste 27 Noroeste 0 -- -- 45
2019-04-09 16:00:00 18.7 12 Oeste 30 Oeste 0 -- -- 37
2019-04-09 15:00:00 18 16 Oeste 31 Oeste 0 -- -- 42
2019-04-09 14:00:00 16.5 11 Noroeste 35 Oeste 0 -- -- 48
2019-04-09 13:00:00 17.1 22 Oeste 38 Oeste 0 -- -- 44
2019-04-09 12:00:00 15.6 23 Noroeste 39 Oeste 0 -- -- 49
2019-04-09 11:00:00 14.5 22 Oeste 39 Oeste 0 -- -- 56
2019-04-09 10:00:00 12.8 17 Oeste 30 Oeste 0 -- -- 63
2019-04-09 09:00:00 10.2 12 Oeste 22 Noroeste 0 -- -- 75
2019-04-09 08:00:00 8.9 10 Noroeste 18 Oeste 0 -- -- 82
2019-04-09 07:00:00 7.4 4 Sudoeste 8 Oeste 0 -- -- 85
2019-04-09 06:00:00 8.7 4 Sur 14 Sudoeste 0 -- -- 87
2019-04-09 05:00:00 9.4 6 Sudoeste 10 Sudoeste 0 -- -- 89
2019-04-09 04:00:00 9.7 3 Noroeste 22 Oeste 5.8 -- -- 88
2019-04-09 03:00:00 10.5 4 Sur 21 Sudoeste 0.8 -- -- 82
2019-04-09 02:00:00 10.9 3 Noroeste 19 Sudoeste 0 -- -- 81
2019-04-09 01:00:00 11.3 14 Sudoeste 34 Sudoeste 0 -- -- 79
2019-04-09 00:00:00 11.2 10 Sudoeste 17 Oeste 0 -- -- 83
2019-04-08 23:00:00 11.1 5 Oeste 9 Oeste 0 -- -- 80
2019-04-08 22:00:00 12.7 5 Oeste 15 Oeste 0 -- -- 75
2019-04-08 21:00:00 14.3 8 Oeste 12 Noroeste 0 -- -- 67
2019-04-08 20:00:00 15.5 5 Norte 35 Noroeste 0 -- -- 60
2019-04-08 19:00:00 18.4 12 Oeste 24 Oeste 0 -- -- 55
2019-04-08 18:00:00 18.7 4 Este 10 Este 0 -- -- 56
2019-04-08 17:00:00 17.4 2 Norte 16 Oeste 2 -- -- 72
2019-04-08 16:00:00 18.1 5 Sudeste 14 Norte 0 -- -- 57
2019-04-08 15:00:00 17.3 7 Nordeste 14 Este 0 -- -- 62
2019-04-08 14:00:00 16.2 6 Norte 10 Norte 0 -- -- 66
2019-04-08 13:00:00 14.5 4 Este 11 Este 0 -- -- 70
2019-04-08 12:00:00 12.5 4 Este 10 Nordeste 0 -- -- 79
2019-04-08 11:00:00 11.8 6 Este 11 Este 0.2 -- -- 83
2019-04-08 10:00:00 11 4 Este 10 Sudeste 0 -- -- 88
2019-04-08 09:00:00 9.1 2 Nordeste 6 Este 0 -- -- 91
2019-04-08 08:00:00 8.5 4 Este 8 Este 0 -- -- 89
2019-04-08 07:00:00 8.6 4 Este 7 Este 0.2 -- -- 87
2019-04-08 06:00:00 8.8 5 Este 7 Este 1 -- -- 86
2019-04-08 05:00:00 9.4 3 Nordeste 6 Este 0.6 -- -- 82
2019-04-08 04:00:00 9.5 3 Norte 9 Noroeste 0 -- -- 80
2019-04-08 03:00:00 10 2 Oeste 12 Sudoeste 0 -- -- 68
2019-04-08 02:00:00 10.4 8 Sudoeste 15 Oeste 0 -- -- 65
2019-04-08 01:00:00 9.8 4 Sudoeste 12 Sudoeste 0 -- -- 66
2019-04-08 00:00:00 10 5 Este 13 Sur 0 -- -- 62
2019-04-07 23:00:00 11 6 Sur 11 Sudoeste 0 -- -- 56
2019-04-07 22:00:00 11 10 Sudoeste 15 Oeste 0 -- -- 59
2019-04-07 21:00:00 12.7 11 Oeste 17 Oeste 0 -- -- 52
2019-04-07 20:00:00 15.4 8 Oeste 30 Oeste 0 -- -- 44
2019-04-07 19:00:00 16.7 18 Oeste 33 Sudoeste 0 -- -- 41
2019-04-07 18:00:00 17 21 Oeste 42 Oeste 0 -- -- 40
2019-04-07 17:00:00 16.5 22 Oeste 44 Noroeste 0 -- -- 39
2019-04-07 16:00:00 15.9 27 Oeste 69 Oeste 0 -- -- 39
2019-04-07 15:00:00 15.6 27 Oeste 50 Oeste 0 -- -- 41
2019-04-07 14:00:00 14.6 27 Oeste 52 Noroeste 0 -- -- 47
2019-04-07 13:00:00 13.2 30 Noroeste 49 Noroeste 0 -- -- 49
2019-04-07 12:00:00 12.8 29 Oeste 55 Noroeste 0 -- -- 51
2019-04-07 11:00:00 11.4 22 Oeste 35 Oeste 0 -- -- 60
2019-04-07 10:00:00 9.7 19 Noroeste 41 Noroeste 0 -- -- 69
2019-04-07 09:00:00 8.1 15 Oeste 25 Oeste 0 -- -- 78
2019-04-07 08:00:00 7.5 12 Oeste 21 Oeste 0 -- -- 84
2019-04-07 07:00:00 7.8 14 Noroeste 21 Noroeste 0 -- -- 80
2019-04-07 06:00:00 7.3 12 Oeste 16 Oeste 0 -- -- 78
2019-04-07 05:00:00 8.1 4 Oeste 14 Noroeste 0 -- -- 75
2019-04-07 04:00:00 7.9 6 Oeste 13 Sudoeste 0 -- -- 75
2019-04-07 03:00:00 7.8 12 Oeste 22 Sudoeste 0 -- -- 75
2019-04-07 02:00:00 8.5 7 Oeste 17 Oeste 0 -- -- 73
2019-04-07 01:00:00 7.9 5 Sur 17 Sur 0 -- -- 77
2019-04-07 00:00:00 8.4 5 Sudoeste 22 Sudoeste 0.2 -- -- 77
2019-04-06 23:00:00 8.6 15 Sudoeste 24 Sudoeste 0 -- -- 75
2019-04-06 22:00:00 9.5 3 Sudoeste 15 Sudoeste 0 -- -- 71
2019-04-06 21:00:00 9.7 9 Sur 22 Oeste 0 -- -- 74
2019-04-06 20:00:00 10.9 16 Oeste 35 Sudoeste 0 -- -- 63
2019-04-06 19:00:00 12 14 Oeste 55 Sur 0.4 -- -- 50
2019-04-06 18:00:00 14.5 10 Noroeste 22 Sudoeste 0 -- -- 46
2019-04-06 17:00:00 15.5 9 Sudoeste 23 Sudoeste 0 -- -- 40
2019-04-06 16:00:00 15.8 16 Sudoeste 32 Sudoeste 0 -- -- 40
2019-04-06 15:00:00 15.4 14 Sudoeste 34 Oeste 0 -- -- 41
2019-04-06 14:00:00 13.8 14 Oeste 30 Noroeste 0 -- -- 44
2019-04-06 13:00:00 13.2 23 Oeste 37 Oeste 0 -- -- 44
2019-04-06 12:00:00 13.4 24 Oeste 46 Oeste 0 -- -- 43
2019-04-06 11:00:00 11.9 24 Oeste 44 Oeste 0 -- -- 52
2019-04-06 10:00:00 9.4 3 Noroeste 12 Oeste 0 -- -- 68
2019-04-06 09:00:00 7.1 7 Oeste 10 Oeste 0 -- -- 76
2019-04-06 08:00:00 6 3 Sudeste 8 Sudoeste 0 -- -- 80
2019-04-06 07:00:00 6.3 5 Sudoeste 8 Sudoeste 0 -- -- 81
2019-04-06 06:00:00 6.8 5 Oeste 11 Oeste 0 -- -- 79
2019-04-06 05:00:00 6.9 5 Sudoeste 13 Oeste 0 -- -- 82
2019-04-06 04:00:00 6.5 4 Sudeste 8 Sudeste 0 -- -- 91
2019-04-06 03:00:00 6.5 0 Calma 9 Noroeste 0 -- -- 90
2019-04-06 02:00:00 6.9 8 Noroeste 18 Oeste 0 -- -- 89
2019-04-06 01:00:00 6.9 10 Oeste 22 Oeste 0 -- -- 90
2019-04-06 00:00:00 6.8 14 Noroeste 42 Sudoeste 0.8 -- -- 88
2019-04-05 23:00:00 7.1 32 Sudoeste 59 Sur 0 -- -- 81
2019-04-05 22:00:00 9.8 0 Calma 11 Sudeste 0.2 -- -- 83
2019-04-05 21:00:00 9.9 5 Este 19 Este 0 -- -- 84
2019-04-05 20:00:00 10.5 3 Noroeste 13 Noroeste 0 -- -- 88
2019-04-05 19:00:00 10.7 10 Noroeste 16 Noroeste 0 -- -- 86
2019-04-05 18:00:00 10.7 12 Noroeste 23 Noroeste 0 -- -- 86
2019-04-05 17:00:00 10.5 16 Noroeste 33 Noroeste 0 -- -- 86
2019-04-05 16:00:00 12.7 12 Oeste 23 Oeste 0.4 -- -- 76
2019-04-05 15:00:00 15.3 4 Nordeste 20 Este 0 -- -- 55
2019-04-05 14:00:00 17.1 8 Este 23 Este 0 -- -- 42
2019-04-05 13:00:00 15.7 8 Este 16 Este 0 -- -- 52
2019-04-05 12:00:00 13.8 7 Este 16 Este 0 -- -- 65
2019-04-05 11:00:00 11.2 6 Este 14 Este 0 -- -- 74
2019-04-05 10:00:00 8.9 2 Sur 14 Sudoeste 0 -- -- 76
2019-04-05 09:00:00 8.4 7 Sudoeste 16 Este 0 -- -- 82
2019-04-05 08:00:00 8.3 11 Este 18 Este 0 -- -- 76
2019-04-05 07:00:00 7.9 6 Este 12 Este 0 -- -- 71
2019-04-05 06:00:00 6.7 2 Norte 7 Sudoeste 0 -- -- 78
2019-04-05 05:00:00 6.5 2 Este 5 Nordeste 0 -- -- 77
2019-04-05 04:00:00 6.1 2 Nordeste 8 Sudeste 0 -- -- 75
2019-04-05 03:00:00 5.2 5 Sur 10 Sur 0 -- -- 77
2019-04-05 02:00:00 5.7 4 Oeste 12 Oeste 0 -- -- 69
2019-04-05 01:00:00 8.3 6 Este 12 Este 0 -- -- 59
2019-04-05 00:00:00 8.9 4 Este 15 Sudeste 0 -- -- 51
2019-04-04 23:00:00 9.7 8 Este 20 Este 0 -- -- 43
2019-04-04 22:00:00 10.8 7 Este 17 Este 0 -- -- 43
2019-04-04 21:00:00 11.6 6 Este 13 Este 0 -- -- 44
2019-04-04 20:00:00 13.9 7 Este 14 Este 0 -- -- 40
2019-04-04 19:00:00 15 5 Nordeste 11 Norte 0 -- -- 35
2019-04-04 18:00:00 15.4 6 Nordeste 17 Este 0 -- -- 34
2019-04-04 17:00:00 15.2 8 Este 21 Norte 0 -- -- 35
2019-04-04 16:00:00 14.2 8 Norte 24 Noroeste 0 -- -- 35
2019-04-04 15:00:00 13.4 14 Noroeste 27 Noroeste 0 -- -- 37
2019-04-04 14:00:00 12.7 16 Noroeste 34 Noroeste 0 -- -- 37
2019-04-04 13:00:00 11.4 16 Noroeste 29 Oeste 0 -- -- 42
2019-04-04 12:00:00 10.2 10 Noroeste 23 Oeste 0 -- -- 48
2019-04-04 11:00:00 8.8 12 Oeste 23 Oeste 0 -- -- 51
2019-04-04 10:00:00 6.6 8 Noroeste 18 Noroeste 0 -- -- 68
2019-04-04 09:00:00 3.1 8 Oeste 18 Oeste 0 -- -- 77
2019-04-04 08:00:00 1.5 13 Oeste 19 Oeste 0 -- -- 78
2019-04-04 07:00:00 1.3 14 Sudoeste 21 Sudoeste 0 -- -- 81
2019-04-04 06:00:00 1.6 5 Oeste 14 Oeste 0 -- -- 78
2019-04-04 05:00:00 1 13 Sudoeste 18 Sudoeste 0 -- -- 81
2019-04-04 04:00:00 2.1 14 Sudoeste 23 Oeste 0 -- -- 77
2019-04-04 03:00:00 4.4 17 Oeste 29 Oeste 0 -- -- 70
2019-04-04 02:00:00 4.2 8 Oeste 20 Oeste 0 -- -- 72
2019-04-04 01:00:00 4.7 10 Oeste 17 Oeste 0 -- -- 76
2019-04-04 00:00:00 5 6 Sudoeste 18 Sudoeste 0 -- -- 79
2019-04-03 23:00:00 6 12 Sudoeste 25 Sudoeste 0 -- -- 77
2019-04-03 22:00:00 6.4 19 Sudoeste 32 Sudoeste 0 -- -- 78
2019-04-03 21:00:00 7.3 12 Oeste 42 Noroeste 0 -- -- 72
2019-04-03 20:00:00 8.1 31 Noroeste 56 Oeste 0 -- -- 71
2019-04-03 19:00:00 10.5 19 Oeste 33 Oeste 0 -- -- 64
2019-04-03 18:00:00 10.4 14 Oeste 26 Oeste 0 -- -- 62
2019-04-03 17:00:00 9.6 15 Noroeste 33 Oeste 0 -- -- 70
2019-04-03 16:00:00 9.7 21 Noroeste 38 Noroeste 0 -- -- 76
2019-04-03 15:00:00 10.1 25 Noroeste 37 Oeste 0 -- -- 68
2019-04-03 14:00:00 11.2 22 Noroeste 36 Noroeste 0 -- -- 63
2019-04-03 13:00:00 12.3 17 Noroeste 29 Noroeste 0 -- -- 63
2019-04-03 12:00:00 12.5 17 Noroeste 31 Noroeste 0 -- -- 67
2019-04-03 11:00:00 12 10 Norte 20 Noroeste 0 -- -- 71
2019-04-03 10:00:00 10.9 10 Noroeste 18 Noroeste 0 -- -- 72
2019-04-03 09:00:00 9.3 3 Sudeste 10 Sur 0 -- -- 81
2019-04-03 08:00:00 9.1 3 Oeste 13 Oeste 0 -- -- 79
2019-04-03 07:00:00 9.4 8 Oeste 23 Oeste 0 -- -- 78
2019-04-03 06:00:00 7.6 5 Oeste 13 Oeste 0 -- -- 83
2019-04-03 05:00:00 8.9 4 Sudoeste 10 Oeste 0 -- -- 77
2019-04-03 04:00:00 9.8 4 Sur 7 Oeste 0 -- -- 78
2019-04-03 03:00:00 11.3 3 Norte 21 Oeste 0 -- -- 73
2019-04-03 02:00:00 11.6 14 Oeste 23 Oeste 0 -- -- 73
2019-04-03 01:00:00 12.3 5 Noroeste 7 Noroeste 0 -- -- 80
2019-04-03 00:00:00 12.7 7 Sur 10 Sur 0 -- -- 76
2019-04-02 23:00:00 13 4 Sur 16 Sudoeste 0 -- -- 73
2019-04-02 22:00:00 12.6 11 Sudoeste 18 Sudoeste 0 -- -- 73
2019-04-02 21:00:00 13.9 11 Sudoeste 15 Sur 0 -- -- 65
2019-04-02 20:00:00 16.5 12 Sudoeste 22 Sudoeste 0 -- -- 55
2019-04-02 19:00:00 17.9 10 Oeste 35 Noroeste 0 -- -- 53
2019-04-02 18:00:00 19.2 22 Noroeste 35 Noroeste 0 -- -- 44
2019-04-02 17:00:00 19.6 22 Noroeste 39 Noroeste 0 -- -- 48
2019-04-02 16:00:00 19.2 14 Noroeste 31 Norte 0 -- -- 53
2019-04-02 15:00:00 18.3 17 Noroeste 27 Noroeste 0 -- -- 59
2019-04-02 14:00:00 17.7 17 Noroeste 31 Noroeste 0 -- -- 59
2019-04-02 13:00:00 15.8 12 Noroeste 19 Noroeste 0 -- -- 73
2019-04-02 12:00:00 14.4 11 Oeste 23 Noroeste 0 -- -- 78
2019-04-02 11:00:00 12.1 14 Noroeste 23 Noroeste 0 -- -- 91
2019-04-02 10:00:00 11.6 8 Noroeste 19 Oeste 0 -- -- 95
2019-04-02 09:00:00 10.7 9 Oeste 18 Noroeste 0 -- -- 96
2019-04-02 08:00:00 9.5 6 Noroeste 8 Noroeste 0 -- -- 94
2019-04-02 07:00:00 9.5 0 Calma 3 Oeste 0 -- -- 93
2019-04-02 06:00:00 10.5 2 Sur 6 Sudoeste 0 -- -- 93
2019-04-02 05:00:00 10.6 5 Sudoeste 8 Sudoeste 0 -- -- 92
2019-04-02 04:00:00 11 2 Este 5 Este 0 -- -- 91
2019-04-02 03:00:00 11.5 2 Oeste 4 Sudoeste 0 -- -- 92
2019-04-02 02:00:00 11.5 0 Calma 5 Este 0 -- -- 90
2019-04-02 01:00:00 11.9 4 Sudeste 7 Este 0 -- -- 90
2019-04-02 00:00:00 12.6 6 Sudoeste 10 Sudoeste 0.2 -- -- 89
2019-04-01 23:00:00 12.7 4 Nordeste 10 Sudoeste 0 -- -- 89
2019-04-01 22:00:00 13.3 8 Sudoeste 12 Sudoeste 0.2 -- -- 85
2019-04-01 21:00:00 14.2 4 Oeste 8 Oeste 0 -- -- 78
2019-04-01 20:00:00 14.7 6 Oeste 10 Oeste 0 -- -- 74
2019-04-01 19:00:00 16.2 6 Sudoeste 13 Oeste 0 -- -- 68
2019-04-01 18:00:00 16.6 3 Oeste 8 Norte 0 -- -- 68
2019-04-01 17:00:00 16 4 Sudeste 10 Este 0 -- -- 71
2019-04-01 16:00:00 14.3 5 Este 12 Este 0 -- -- 76
2019-04-01 15:00:00 14.1 5 Este 10 Este 0 -- -- 78
2019-04-01 14:00:00 12.9 3 Sur 8 Sudeste 0 -- -- 80
2019-04-01 13:00:00 11.6 3 Este 8 Nordeste 0 -- -- 88
2019-04-01 12:00:00 10.8 3 Nordeste 7 Este 0.4 -- -- 92
2019-04-01 11:00:00 10.1 2 Sur 6 Sudoeste 0.8 -- -- 95
2019-04-01 10:00:00 9.5 4 Sudoeste 6 Sudoeste 0.6 -- -- 95
2019-04-01 09:00:00 9.1 4 Oeste 8 Oeste 0.8 -- -- 96
2019-04-01 08:00:00 8.8 4 Noroeste 8 Noroeste 0.6 -- -- 96
2019-04-01 07:00:00 8.6 6 Noroeste 9 Noroeste 0.6 -- -- 96
2019-04-01 06:00:00 8.6 6 Noroeste 13 Noroeste 0.6 -- -- 95
2019-04-01 05:00:00 8.6 10 Noroeste 14 Noroeste 0.4 -- -- 95
2019-04-01 04:00:00 8.8 10 Noroeste 15 Noroeste 0.6 -- -- 94
2019-04-01 03:00:00 9.2 7 Noroeste 12 Noroeste 0.6 -- -- 93
2019-04-01 02:00:00 9.4 6 Noroeste 11 Noroeste 0.4 -- -- 92
2019-04-01 01:00:00 9.8 4 Oeste 8 Oeste 0.4 -- -- 91
2019-04-01 00:00:00 9.9 3 Norte 4 Norte 0.4 -- -- 90
2019-03-31 23:00:00 9.9 2 Sur 9 Oeste 0.6 -- -- 90
2019-03-31 22:00:00 9.9 6 Oeste 11 Sudoeste 1.2 -- -- 90
2019-03-31 21:00:00 10.1 8 Sudoeste 13 Sudoeste 0.8 -- -- 87
2019-03-31 20:00:00 11.2 7 Sur 10 Sur 0.2 -- -- 82
2019-03-31 19:00:00 12.2 5 Sudoeste 9 Sudoeste 0 -- -- 71
2019-03-31 18:00:00 12.3 6 Sudoeste 12 Sudoeste 0 -- -- 70
2019-03-31 17:00:00 11.9 8 Sudoeste 14 Sudoeste 0 -- -- 71
2019-03-31 16:00:00 12 3 Sur 9 Este 0 -- -- 66
2019-03-31 15:00:00 11.8 3 Nordeste 9 Sudeste 0 -- -- 66
2019-03-31 14:00:00 11 9 Sur 18 Sur 0 -- -- 70
2019-03-31 13:00:00 10.9 8 Sudeste 12 Este 0 -- -- 71
2019-03-31 12:00:00 9.4 2 Sudeste 8 Noroeste 0 -- -- 76
2019-03-31 11:00:00 7.8 6 Noroeste 11 Noroeste 0 -- -- 83
2019-03-31 10:00:00 6.3 5 Noroeste 7 Noroeste 0 -- -- 87
2019-03-31 09:00:00 4.4 0 Calma 9 Noroeste 0 -- -- 91
2019-03-31 08:00:00 2.6 7 Sudoeste 9 Sudoeste 0 -- -- 87
2019-03-31 07:00:00 3.4 5 Sudoeste 9 Sudoeste 0 -- -- 85
2019-03-31 06:00:00 4.2 7 Sudoeste 10 Sudoeste 0 -- -- 87
2019-03-31 05:00:00 4.9 5 Sudoeste 8 Sudoeste 0 -- -- 83
2019-03-31 03:00:00 8.6 5 Este 11 Este 0 -- -- 78
2019-03-31 01:00:00 9.4 6 Sudeste 17 Sudeste 0 -- -- 75
2019-03-31 00:00:00 9.5 4 Sudeste 12 Este 0 -- -- 72
2019-03-30 23:00:00 10.6 6 Este 24 Este 0 -- -- 65
2019-03-30 22:00:00 12.1 13 Sudeste 22 Este 0 -- -- 58
2019-03-30 21:00:00 13.3 13 Sudeste 21 Sudeste 0 -- -- 49
2019-03-30 20:00:00 14.9 14 Sudeste 24 Sudeste 0 -- -- 44
2019-03-30 19:00:00 17.5 13 Este 23 Este 0 -- -- 36
2019-03-30 18:00:00 19.7 11 Este 21 Este 0 -- -- 30
2019-03-30 17:00:00 20.2 12 Este 21 Este 0 -- -- 26
2019-03-30 16:00:00 20.2 13 Este 25 Este 0 -- -- 26
2019-03-30 15:00:00 19.7 10 Este 21 Sudeste 0 -- -- 32
2019-03-30 14:00:00 18.8 10 Sudeste 24 Este 0 -- -- 33
2019-03-30 13:00:00 17.6 9 Este 22 Este 0 -- -- 38
2019-03-30 12:00:00 15.8 8 Este 15 Este 0 -- -- 43
2019-03-30 11:00:00 13.7 6 Sudeste 21 Este 0 -- -- 46
2019-03-30 10:00:00 11.1 6 Sudeste 13 Este 0 -- -- 69
2019-03-30 09:00:00 8 5 Este 9 Este 0 -- -- 75
2019-03-30 08:00:00 2.9 2 Sur 9 Sudoeste 0 -- -- 86
2019-03-30 07:00:00 1.8 7 Sur 11 Sudoeste 0 -- -- 85
2019-03-30 06:00:00 2 4 Sudeste 7 Sur 0 -- -- 81
2019-03-30 05:00:00 3.3 6 Sur 10 Sur 0 -- -- 78
2019-03-30 04:00:00 4.4 8 Sudoeste 11 Sudoeste 0 -- -- 78
2019-03-30 03:00:00 7.4 6 Sur 14 Sudeste 0 -- -- 71
2019-03-30 02:00:00 7.8 7 Sudeste 13 Este 0 -- -- 74
2019-03-30 01:00:00 8.7 8 Este 18 Este 0 -- -- 69
2019-03-30 00:00:00 9.2 5 Este 20 Este 0 -- -- 55
2019-03-29 23:00:00 10.4 5 Este 13 Sudeste 0 -- -- 52
2019-03-29 22:00:00 11.1 2 Nordeste 20 Sudeste 0 -- -- 54
2019-03-29 21:00:00 13.3 13 Sudeste 23 Este 0 -- -- 46
2019-03-29 20:00:00 14.9 15 Este 33 Sudeste 0 -- -- 46
2019-03-29 19:00:00 16.9 21 Este 39 Sudeste 0 -- -- 40
2019-03-29 18:00:00 18.5 19 Este 40 Este 0 -- -- 35
2019-03-29 17:00:00 19.9 19 Este 36 Este 0 -- -- 34
2019-03-29 16:00:00 20.7 18 Este 35 Este 0 -- -- 32
2019-03-29 15:00:00 20.9 16 Este 34 Este 0 -- -- 28
2019-03-29 14:00:00 20.4 14 Este 33 Este 0 -- -- 27
2019-03-29 13:00:00 19.4 11 Sudeste 23 Sudeste 0 -- -- 28
2019-03-29 12:00:00 17 8 Este 18 Este 0 -- -- 35
2019-03-29 11:00:00 13.8 5 Sudeste 12 Sudeste 0 -- -- 49
2019-03-29 10:00:00 10.6 6 Este 12 Este 0 -- -- 60
2019-03-29 09:00:00 7.1 2 Norte 5 Norte 0 -- -- 68
2019-03-29 08:00:00 2.6 2 Sur 6 Sudoeste 0 -- -- 78
2019-03-29 07:00:00 1 6 Sudoeste 10 Sudoeste 0 -- -- 80
2019-03-29 06:00:00 1.7 7 Sudoeste 9 Sudoeste 0 -- -- 76
2019-03-29 05:00:00 2.5 6 Sudoeste 13 Sudoeste 0 -- -- 74
2019-03-29 04:00:00 2.6 6 Sudoeste 9 Sudoeste 0 -- -- 74
2019-03-29 03:00:00 3.3 7 Sudoeste 10 Sudoeste 0 -- -- 71
2019-03-29 02:00:00 4.6 5 Sudoeste 7 Sudoeste 0 -- -- 67
2019-03-29 01:00:00 5.5 5 Oeste 12 Oeste 0 -- -- 64
2019-03-29 00:00:00 6.1 8 Sudoeste 9 Sudoeste 0 -- -- 64
2019-03-28 23:00:00 7.5 4 Oeste 9 Sudoeste 0 -- -- 62
2019-03-28 22:00:00 11.1 5 Este 15 Este 0 -- -- 52
2019-03-28 21:00:00 12.9 4 Este 12 Este 0 -- -- 49
2019-03-28 20:00:00 16.2 3 Este 5 Este 0 -- -- 40
2019-03-28 19:00:00 18.7 4 Este 8 Este 0 -- -- 36
2019-03-28 18:00:00 19.6 6 Este 12 Este 0 -- -- 33
2019-03-28 17:00:00 19.6 4 Norte 13 Noroeste 0 -- -- 32
2019-03-28 16:00:00 19.4 7 Noroeste 15 Oeste 0 -- -- 32
2019-03-28 15:00:00 18.3 7 Noroeste 21 Noroeste 0 -- -- 38
2019-03-28 14:00:00 17.1 11 Noroeste 21 Noroeste 0 -- -- 42
2019-03-28 13:00:00 15.6 10 Noroeste 22 Noroeste 0 -- -- 45
2019-03-28 12:00:00 14 13 Noroeste 23 Noroeste 0 -- -- 48
2019-03-28 11:00:00 12.7 10 Norte 20 Norte 0 -- -- 55
2019-03-28 10:00:00 10.5 8 Noroeste 14 Oeste 0 -- -- 59
2019-03-28 09:00:00 8.3 3 Norte 8 Noroeste 0 -- -- 67
2019-03-28 08:00:00 5 5 Oeste 9 Oeste 0 -- -- 74
2019-03-28 07:00:00 3.6 2 Sudoeste 5 Oeste 0 -- -- 73
2019-03-28 06:00:00 4.9 0 Calma 8 Noroeste 0 -- -- 69
2019-03-28 05:00:00 5.9 7 Noroeste 13 Noroeste 0 -- -- 67
2019-03-28 04:00:00 6.9 8 Noroeste 15 Oeste 0 -- -- 66
2019-03-28 03:00:00 8.4 9 Norte 27 Oeste 0 -- -- 58
2019-03-28 02:00:00 9.6 18 Noroeste 30 Oeste 0 -- -- 52
2019-03-28 01:00:00 9.8 10 Oeste 20 Oeste 0 -- -- 48
2019-03-28 00:00:00 10.6 11 Noroeste 26 Norte 0 -- -- 46
2019-03-27 23:00:00 11.7 11 Noroeste 30 Noroeste 0 -- -- 42
2019-03-27 22:00:00 12.6 17 Oeste 26 Oeste 0 -- -- 39
2019-03-27 21:00:00 13.3 8 Oeste 21 Sudoeste 0 -- -- 34
2019-03-27 20:00:00 14.4 5 Sudeste 6 Sudeste 0 -- -- 31
2019-03-27 19:00:00 19 4 Este 8 Este 0 -- -- 24
2019-03-27 18:00:00 20 3 Nordeste 14 Norte 0 -- -- 23
2019-03-27 17:00:00 19.9 9 Norte 18 Noroeste 0 -- -- 23
2019-03-27 16:00:00 19.4 11 Noroeste 21 Noroeste 0 -- -- 23
2019-03-27 15:00:00 18.9 8 Noroeste 21 Noroeste 0 -- -- 29
2019-03-27 14:00:00 17.8 9 Norte 24 Noroeste 0 -- -- 33
2019-03-27 13:00:00 16.2 13 Noroeste 26 Noroeste 0 -- -- 40
2019-03-27 12:00:00 14.1 10 Noroeste 23 Noroeste 0 -- -- 46
2019-03-27 11:00:00 12.2 12 Noroeste 18 Noroeste 0 -- -- 54
2019-03-27 10:00:00 8.9 6 Noroeste 12 Oeste 0 -- -- 63
2019-03-27 09:00:00 6 3 Norte 6 Este 0 -- -- 67
2019-03-27 08:00:00 1.9 3 Sudeste 5 Sudeste 0 -- -- 80
2019-03-27 07:00:00 1 3 Noroeste 6 Oeste 0 -- -- 78
2019-03-27 06:00:00 2.2 3 Oeste 7 Oeste 0 -- -- 75
2019-03-27 05:00:00 3.4 3 Noroeste 12 Noroeste 0 -- -- 71
2019-03-27 04:00:00 4.7 5 Oeste 10 Oeste 0 -- -- 67
2019-03-27 03:00:00 6.4 4 Noroeste 7 Norte 0 -- -- 58
2019-03-27 02:00:00 7.9 4 Nordeste 17 Noroeste 0 -- -- 58
2019-03-27 01:00:00 9.5 9 Noroeste 23 Oeste 0 -- -- 48
2019-03-27 00:00:00 10.1 15 Oeste 27 Oeste 0 -- -- 45
2019-03-26 23:00:00 10.9 5 Sudoeste 31 Noroeste 0 -- -- 42
2019-03-26 22:00:00 12.3 19 Noroeste 43 Oeste 0 -- -- 38
2019-03-26 21:00:00 14.3 23 Noroeste 36 Oeste 0 -- -- 33
2019-03-26 20:00:00 16 13 Oeste 24 Oeste 0 -- -- 25
2019-03-26 19:00:00 19.4 2 Noroeste 12 Norte 0 -- -- 23
2019-03-26 18:00:00 20 9 Noroeste 19 Noroeste 0 -- -- 22
2019-03-26 17:00:00 20.1 13 Noroeste 24 Noroeste 0 -- -- 21
2019-03-26 16:00:00 19.8 14 Noroeste 24 Noroeste 0 -- -- 24
2019-03-26 15:00:00 18.9 17 Noroeste 25 Noroeste 0 -- -- 30
2019-03-26 14:00:00 17.8 14 Noroeste 31 Noroeste 0 -- -- 33
2019-03-26 13:00:00 16.7 16 Noroeste 30 Noroeste 0 -- -- 36
2019-03-26 12:00:00 14.9 17 Noroeste 31 Noroeste 0 -- -- 39
2019-03-26 11:00:00 12.9 21 Noroeste 39 Noroeste 0 -- -- 44
2019-03-26 10:00:00 11.3 21 Noroeste 36 Noroeste 0 -- -- 49
2019-03-26 09:00:00 9.8 18 Noroeste 29 Noroeste 0 -- -- 56
2019-03-26 08:00:00 7.5 10 Noroeste 17 Oeste 0 -- -- 67
2019-03-26 07:00:00 7.5 11 Noroeste 37 Noroeste 0 -- -- 65
2019-03-26 06:00:00 8.8 23 Noroeste 45 Noroeste 0 -- -- 60
2019-03-26 05:00:00 9.1 25 Noroeste 46 Noroeste 0 -- -- 59
2019-03-26 04:00:00 9.4 30 Noroeste 48 Noroeste 0 -- -- 59
2019-03-26 03:00:00 9.4 28 Noroeste 58 Noroeste 0 -- -- 60
2019-03-26 02:00:00 9.5 31 Noroeste 51 Noroeste 0 -- -- 59
2019-03-26 01:00:00 9.5 33 Noroeste 60 Noroeste 0 -- -- 58
2019-03-26 00:00:00 9.6 32 Noroeste 59 Oeste 0 -- -- 57
2019-03-25 23:00:00 10.3 33 Noroeste 63 Noroeste 0 -- -- 56
2019-03-25 22:00:00 11.1 38 Noroeste 62 Noroeste 0 -- -- 54
2019-03-25 21:00:00 11.7 35 Noroeste 58 Noroeste 0 -- -- 52
2019-03-25 20:00:00 12.9 30 Noroeste 55 Noroeste 0 -- -- 48
2019-03-25 19:00:00 15 33 Oeste 54 Oeste 0 -- -- 41
2019-03-25 18:00:00 16.9 29 Noroeste 46 Oeste 0 -- -- 35
2019-03-25 17:00:00 17.7 30 Noroeste 52 Noroeste 0 -- -- 31
2019-03-25 16:00:00 17.9 30 Noroeste 49 Oeste 0 -- -- 32
2019-03-25 15:00:00 18.2 30 Noroeste 46 Oeste 0 -- -- 33
2019-03-25 14:00:00 17.9 30 Noroeste 49 Oeste 0 -- -- 36
2019-03-25 13:00:00 17.3 30 Noroeste 49 Noroeste 0 -- -- 38
2019-03-25 12:00:00 16.6 32 Noroeste 50 Noroeste 0 -- -- 46
2019-03-25 11:00:00 15.6 30 Oeste 58 Noroeste 0 -- -- 50
2019-03-25 10:00:00 13.7 31 Noroeste 55 Oeste 0 -- -- 56
2019-03-25 09:00:00 12.3 28 Noroeste 50 Oeste 0 -- -- 60
2019-03-25 08:00:00 10.9 25 Noroeste 47 Noroeste 0 -- -- 63
2019-03-25 07:00:00 10.6 20 Noroeste 32 Oeste 0 -- -- 59
2019-03-25 06:00:00 9.1 7 Noroeste 18 Noroeste 0 -- -- 62
2019-03-25 05:00:00 10.1 5 Norte 19 Oeste 0 -- -- 57
2019-03-25 04:00:00 11.3 9 Oeste 20 Oeste 0 -- -- 51
2019-03-25 03:00:00 11.7 10 Oeste 17 Noroeste 0 -- -- 50
2019-03-25 02:00:00 12.3 9 Oeste 22 Noroeste 0 -- -- 52
2019-03-25 01:00:00 13.5 9 Oeste 22 Noroeste 0 -- -- 51
2019-03-25 00:00:00 14.5 9 Noroeste 23 Oeste 0 -- -- 48
2019-03-24 23:00:00 12.3 7 Sudoeste 12 Sudoeste 0 -- -- 46
2019-03-24 22:00:00 13.7 9 Oeste 18 Sudoeste 0 -- -- 40
2019-03-24 21:00:00 13.3 14 Sudoeste 16 Sudoeste 0 -- -- 44
2019-03-24 20:00:00 16.3 9 Sur 14 Sur 0 -- -- 38
2019-03-24 19:00:00 22.9 0 Calma 9 Noroeste 0 -- -- 25
2019-03-24 18:00:00 23.6 6 Norte 12 Noroeste 0 -- -- 23
2019-03-24 17:00:00 24.1 8 Noroeste 13 Norte 0 -- -- 20
2019-03-24 16:00:00 24.2 4 Noroeste 13 Norte 0 -- -- 24
2019-03-24 15:00:00 23.6 3 Oeste 13 Noroeste 0 -- -- 27
2019-03-24 14:00:00 21.9 5 Nordeste 12 Norte 0 -- -- 33
2019-03-24 13:00:00 20.3 5 Nordeste 12 Este 0 -- -- 39
2019-03-24 12:00:00 18.1 5 Sudoeste 9 Sur 0 -- -- 42
2019-03-24 11:00:00 14.3 4 Norte 10 Norte 0 -- -- 50
2019-03-24 10:00:00 11.1 3 Noroeste 8 Noroeste 0 -- -- 56
2019-03-24 09:00:00 -- -- -- -- -- -- -- -- --
2019-03-24 08:00:00 3.3 0 Calma 3 Sudoeste 0 -- -- 80
2019-03-24 07:00:00 2.7 2 Este 7 Sudoeste 0 -- -- 76
2019-03-24 06:00:00 3.2 6 Sudoeste 7 Sudoeste 0 -- -- 77
2019-03-24 05:00:00 3.9 0 Calma 3 Sur 0 -- -- 77
2019-03-24 04:00:00 4.5 3 Sur 5 Sur 0 -- -- 73
2019-03-24 03:00:00 5 0 Calma 5 Oeste 0 -- -- 70
2019-03-24 02:00:00 5.5 4 Oeste 8 Sudoeste 0 -- -- 68
2019-03-24 01:00:00 6.6 3 Sur 8 Sur 0 -- -- 64
2019-03-24 00:00:00 7.3 7 Sur 10 Sudoeste 0 -- -- 64
2019-03-23 23:00:00 9.8 0 Calma 9 Sudeste 0 -- -- 53
2019-03-23 22:00:00 10.2 7 Sur 12 Sur 0 -- -- 56
2019-03-23 21:00:00 12.9 3 Sudeste 10 Este 0 -- -- 49
2019-03-23 20:00:00 16.2 4 Sudeste 7 Sur 0 -- -- 36
2019-03-23 19:00:00 21.4 5 Sudeste 11 Sudeste 0 -- -- 28
2019-03-23 18:00:00 23.4 2 Este 8 Sudeste 0 -- -- 28
2019-03-23 17:00:00 23.5 4 Sur 12 Sudeste 0 -- -- 28
2019-03-23 16:00:00 22.9 5 Sudeste 12 Este 0 -- -- 30
2019-03-23 15:00:00 22.1 6 Este 13 Este 0 -- -- 31
2019-03-23 14:00:00 21 6 Sudeste 13 Este 0 -- -- 34
2019-03-23 13:00:00 18.9 5 Norte 13 Sudoeste 0 -- -- 42
2019-03-23 12:00:00 16.1 4 Norte 14 Noroeste 0 -- -- 48
2019-03-23 11:00:00 13 9 Noroeste 15 Noroeste 0 -- -- 54
2019-03-23 10:00:00 9.4 4 Noroeste 9 Norte 0 -- -- 67
2019-03-23 09:00:00 5.9 4 Noroeste 8 Noroeste 0 -- -- 77
2019-03-23 08:00:00 2.6 3 Noroeste 6 Oeste 0 -- -- 84
2019-03-23 07:00:00 1.6 5 Sudeste 8 Sudeste 0 -- -- 82
2019-03-23 06:00:00 2.4 3 Este 6 Sudoeste 0 -- -- 82
2019-03-23 05:00:00 3.2 4 Este 5 Este 0 -- -- 81
2019-03-23 04:00:00 3 3 Oeste 6 Sudoeste 0 -- -- 79
2019-03-23 03:00:00 3.8 5 Sudoeste 8 Sudoeste 0 -- -- 77
2019-03-23 02:00:00 4.4 6 Oeste 9 Sudoeste 0 -- -- 76
2019-03-23 01:00:00 6.1 4 Noroeste 6 Noroeste 0 -- -- 71
2019-03-23 00:00:00 6.5 0 Calma 6 Sudoeste 0 -- -- 70
2019-03-22 23:00:00 8.2 2 Sudeste 6 Oeste 0 -- -- 61
2019-03-22 22:00:00 9.4 6 Oeste 9 Oeste 0 -- -- 60
2019-03-22 21:00:00 11.4 6 Sudoeste 9 Sur 0 -- -- 55
2019-03-22 20:00:00 14.2 6 Sur 9 Sudeste 0 -- -- 46
2019-03-22 19:00:00 18.8 4 Sudeste 8 Oeste 0 -- -- 33
2019-03-22 18:00:00 20.6 4 Sur 12 Sudeste 0 -- -- 30
2019-03-22 17:00:00 20.7 4 Sudeste 15 Sudeste 0 -- -- 29
2019-03-22 16:00:00 20 6 Nordeste 12 Este 0 -- -- 28
2019-03-22 15:00:00 19.6 9 Este 15 Este 0 -- -- 28
2019-03-22 14:00:00 18.6 5 Este 15 Este 0 -- -- 26
2019-03-22 13:00:00 16.9 4 Sur 11 Sur 0 -- -- 33
2019-03-22 12:00:00 14 4 Norte 10 Noroeste 0 -- -- 39
2019-03-22 11:00:00 10 5 Norte 10 Norte 0 -- -- 48
2019-03-22 10:00:00 7.4 4 Sudeste 9 Este 0 -- -- 57
2019-03-22 09:00:00 4.3 4 Nordeste 8 Este 0 -- -- 66
2019-03-22 08:00:00 -0.1 4 Sudoeste 8 Sudoeste 0 -- -- 76
2019-03-22 07:00:00 -0.8 0 Calma 5 Este 0 -- -- 78
2019-03-22 06:00:00 -0.1 4 Este 5 Este 0 -- -- 77
2019-03-22 05:00:00 -0.4 0 Calma 5 Sudoeste 0 -- -- 75
2019-03-22 04:00:00 0.4 3 Sudoeste 9 Oeste 0 -- -- 70
2019-03-22 03:00:00 0.9 6 Sudoeste 9 Sudoeste 0 -- -- 69
2019-03-22 02:00:00 1.4 4 Sudoeste 6 Sudoeste 0 -- -- 65
2019-03-22 01:00:00 2.4 4 Sur 6 Sudoeste 0 -- -- 66
2019-03-22 00:00:00 4 3 Este 5 Sur 0 -- -- 57
2019-03-21 23:00:00 5 6 Sudeste 10 Sudoeste 0 -- -- 55
2019-03-21 22:00:00 6.5 9 Sudoeste 12 Sudoeste 0 -- -- 57
2019-03-21 21:00:00 9.2 0 Calma 8 Sudoeste 0 -- -- 47
2019-03-21 20:00:00 11.2 7 Sudoeste 9 Sudoeste 0 -- -- 43
2019-03-21 19:00:00 16.3 6 Sudoeste 9 Sudoeste 0 -- -- 29
2019-03-21 18:00:00 17.5 5 Sur 12 Sudeste 0 -- -- 24
2019-03-21 17:00:00 18 5 Este 10 Sudeste 0 -- -- 24
2019-03-21 16:00:00 16.9 5 Nordeste 14 Este 0 -- -- 27
2019-03-21 15:00:00 16.6 4 Norte 15 Norte 0 -- -- 31
2019-03-21 14:00:00 15.4 5 Norte 17 Norte 0 -- -- 39
2019-03-21 13:00:00 14.1 9 Norte 23 Noroeste 0 -- -- 43
2019-03-21 12:00:00 12.7 9 Noroeste 21 Noroeste 0 -- -- 49
2019-03-21 11:00:00 10.3 8 Noroeste 16 Noroeste 0 -- -- 57
2019-03-21 10:00:00 7 6 Noroeste 13 Noroeste 0 -- -- 66
2019-03-21 09:00:00 4.8 4 Oeste 9 Oeste 0 -- -- 72
2019-03-21 08:00:00 0.4 4 Este 7 Este 0 -- -- 84
2019-03-21 07:00:00 0.4 4 Este 6 Oeste 0 -- -- 82
2019-03-21 06:00:00 1.2 7 Oeste 12 Sudoeste 0 -- -- 83
2019-03-21 05:00:00 2.9 2 Este 8 Noroeste 0 -- -- 77
2019-03-21 04:00:00 4.2 7 Noroeste 14 Noroeste 0 -- -- 75
2019-03-21 03:00:00 5.6 8 Noroeste 12 Oeste 0 -- -- 68
2019-03-21 02:00:00 6.3 3 Sur 10 Este 0 -- -- 66
2019-03-21 01:00:00 7.1 5 Este 13 Nordeste 0 -- -- 64
2019-03-21 00:00:00 7.8 4 Nordeste 17 Noroeste 0 -- -- 60